createdAt,value
2024-02-29T00:01:22.708Z,12.70
2024-02-29T00:03:50.335Z,12.13
2024-02-29T00:06:18.357Z,12.52
2024-02-29T00:08:47.488Z,10.88
2024-02-29T00:11:15.516Z,11.98
2024-02-29T00:13:43.022Z,11.40
2024-02-29T00:16:10.526Z,13.30
2024-02-29T00:18:40.643Z,13.23
2024-02-29T00:21:08.140Z,13.35
2024-02-29T00:23:35.640Z,13.27
2024-02-29T00:26:04.628Z,12.65
2024-02-29T00:28:32.712Z,12.40
2024-02-29T00:31:00.174Z,12.38
2024-02-29T00:33:27.649Z,13.18
2024-02-29T00:36:05.041Z,11.23
2024-02-29T00:38:37.307Z,11.25
2024-02-29T00:41:06.341Z,11.30
2024-02-29T00:43:34.907Z,12.25
2024-02-29T00:46:02.627Z,12.45
2024-02-29T00:48:30.396Z,12.05
2024-02-29T00:50:57.873Z,13.52
2024-02-29T00:53:25.358Z,12.45
2024-02-29T00:55:52.882Z,11.95
2024-02-29T00:58:21.704Z,12.30
2024-02-29T01:00:49.951Z,13.02
2024-02-29T01:03:17.494Z,8.90
2024-02-29T01:05:45.162Z,11.32
2024-02-29T01:08:11.693Z,12.70
2024-02-29T01:10:40.151Z,11.05
2024-02-29T01:13:07.748Z,11.10
2024-02-29T01:15:36.632Z,12.40
2024-02-29T01:18:07.179Z,12.55
2024-02-29T01:20:35.018Z,11.23
2024-02-29T01:23:02.512Z,12.48
2024-02-29T01:25:30.129Z,12.05
2024-02-29T01:27:57.610Z,11.93
2024-02-29T01:30:25.315Z,14.38
2024-02-29T01:32:54.181Z,12.77
2024-02-29T01:35:21.647Z,13.50
2024-02-29T01:37:49.192Z,12.48
2024-02-29T01:40:19.515Z,11.65
2024-02-29T01:42:47.315Z,11.52
2024-02-29T01:45:15.215Z,12.68
2024-02-29T01:47:42.739Z,11.27
2024-02-29T01:50:12.719Z,11.30
2024-02-29T01:52:41.399Z,12.32
2024-02-29T01:55:09.479Z,10.95
2024-02-29T01:57:37.165Z,12.63
2024-02-29T02:00:06.950Z,11.20
2024-02-29T02:02:35.112Z,11.88
2024-02-29T02:05:01.726Z,12.55
2024-02-29T02:07:30.793Z,12.00
2024-02-29T02:09:58.558Z,11.32
2024-02-29T02:12:26.070Z,12.48
2024-02-29T02:14:53.533Z,13.05
2024-02-29T02:17:21.006Z,12.10
2024-02-29T02:19:48.681Z,12.48
2024-02-29T02:22:17.522Z,11.60
2024-02-29T02:24:45.086Z,12.25
2024-02-29T02:27:12.607Z,12.90
2024-02-29T02:29:40.103Z,12.02
2024-02-29T02:32:07.856Z,12.13
2024-02-29T02:34:35.403Z,12.43
2024-02-29T02:37:02.989Z,11.65
2024-02-29T02:39:31.852Z,11.00
2024-02-29T02:41:59.321Z,10.60
2024-02-29T02:44:26.789Z,11.32
2024-02-29T02:46:54.262Z,11.43
2024-02-29T02:49:21.741Z,13.20
2024-02-29T02:51:49.362Z,12.13
2024-02-29T02:54:16.835Z,12.15
2024-02-29T02:56:45.618Z,12.40
2024-02-29T02:59:13.143Z,11.98
2024-02-29T03:01:40.877Z,11.00
2024-02-29T03:04:08.581Z,10.45
2024-02-29T03:06:36.161Z,11.63
2024-02-29T03:09:03.916Z,11.20
2024-02-29T03:11:31.501Z,11.85
2024-02-29T03:14:00.458Z,10.63
2024-02-29T03:16:28.973Z,11.15
2024-02-29T03:18:56.769Z,10.20
2024-02-29T03:21:24.815Z,12.02
2024-02-29T03:23:52.381Z,10.77
2024-02-29T03:26:19.857Z,10.68
2024-02-29T03:28:47.343Z,12.10
2024-02-29T03:31:16.214Z,11.75
2024-02-29T03:33:43.865Z,10.95
2024-02-29T03:36:11.455Z,10.88
2024-02-29T03:38:39.085Z,10.43
2024-02-29T03:41:07.794Z,10.77
2024-02-29T03:43:36.386Z,11.90
2024-02-29T03:46:03.985Z,8.63
2024-02-29T03:48:32.969Z,11.65
2024-02-29T03:51:00.475Z,11.63
2024-02-29T03:53:27.924Z,11.45
2024-02-29T03:55:56.206Z,10.70
2024-02-29T03:58:23.771Z,7.50
2024-02-29T04:00:51.331Z,11.85
2024-02-29T04:03:18.873Z,11.75
2024-02-29T04:05:47.691Z,11.25
2024-02-29T04:08:15.191Z,12.20
2024-02-29T04:10:46.399Z,11.20
2024-02-29T04:13:14.143Z,9.75
2024-02-29T04:15:41.636Z,9.95
2024-02-29T04:18:09.212Z,11.05
2024-02-29T04:20:36.686Z,11.25
2024-02-29T04:23:05.567Z,11.27
2024-02-29T04:25:32.972Z,11.85
2024-02-29T04:28:00.507Z,11.57
2024-02-29T04:30:27.999Z,9.90
2024-02-29T04:32:55.514Z,12.38
2024-02-29T04:35:23.000Z,11.52
2024-02-29T04:37:50.478Z,12.35
2024-02-29T04:40:19.505Z,12.45
2024-02-29T04:42:47.036Z,11.15
2024-02-29T04:45:14.552Z,10.43
2024-02-29T04:47:42.155Z,10.85
2024-02-29T04:50:10.331Z,10.70
2024-02-29T04:52:37.810Z,10.88
2024-02-29T04:55:05.824Z,11.48
2024-02-29T04:57:34.804Z,13.65
2024-02-29T05:00:02.388Z,15.32
2024-02-29T05:02:29.888Z,13.05
2024-02-29T05:04:57.370Z,12.82
2024-02-29T05:07:24.811Z,12.30
2024-02-29T05:09:52.319Z,10.30
2024-02-29T05:12:21.005Z,10.23
2024-02-29T05:14:49.879Z,8.38
2024-02-29T05:17:17.369Z,10.82
2024-02-29T05:19:44.814Z,12.65
2024-02-29T05:22:12.316Z,10.40
2024-02-29T05:24:39.821Z,10.77
2024-02-29T05:27:07.396Z,10.05
2024-02-29T05:29:34.919Z,11.23
2024-02-29T05:32:03.751Z,11.18
2024-02-29T05:34:31.449Z,9.40
2024-02-29T05:36:58.907Z,10.50
2024-02-29T05:39:26.383Z,11.43
2024-02-29T05:41:57.097Z,10.98
2024-02-29T05:44:24.709Z,10.75
2024-02-29T05:46:52.236Z,9.32
2024-02-29T05:49:21.987Z,10.43
2024-02-29T05:51:49.870Z,9.85
2024-02-29T05:54:17.345Z,9.90
2024-02-29T05:56:44.880Z,9.90
2024-02-29T05:59:13.736Z,10.65
2024-02-29T06:01:41.365Z,10.02
2024-02-29T06:04:08.933Z,9.77
2024-02-29T06:06:37.839Z,11.13
2024-02-29T06:09:05.434Z,12.25
2024-02-29T06:11:32.929Z,11.15
2024-02-29T06:14:03.554Z,12.63
2024-02-29T06:16:31.179Z,12.80
2024-02-29T06:18:58.754Z,12.50
2024-02-29T06:21:26.306Z,13.43
2024-02-29T06:23:55.436Z,11.05
2024-02-29T06:28:50.825Z,8.68
2024-02-29T06:31:18.722Z,9.88
2024-02-29T06:33:46.365Z,10.82
2024-02-29T06:36:14.329Z,10.05
2024-02-29T06:38:41.822Z,9.20
2024-02-29T06:41:11.239Z,10.77
2024-02-29T06:43:38.755Z,11.25
2024-02-29T06:46:08.009Z,11.05
2024-02-29T06:48:35.955Z,10.15
2024-02-29T06:51:03.518Z,11.82
2024-02-29T06:53:32.278Z,12.85
2024-02-29T06:55:59.692Z,13.18
2024-02-29T06:58:29.206Z,12.65
2024-02-29T07:00:57.524Z,12.10
2024-02-29T07:03:25.071Z,13.50
2024-02-29T07:05:52.531Z,10.52
2024-02-29T07:08:20.091Z,9.63
2024-02-29T07:10:47.615Z,11.50
2024-02-29T07:13:15.137Z,12.73
2024-02-29T07:15:44.120Z,11.45
2024-02-29T07:18:12.583Z,11.52
2024-02-29T07:20:40.112Z,10.90
2024-02-29T07:23:07.879Z,10.25
2024-02-29T07:25:35.344Z,10.27
2024-02-29T07:28:04.410Z,11.30
2024-02-29T07:33:02.706Z,10.35
2024-02-29T07:35:31.725Z,10.63
2024-02-29T07:37:59.204Z,11.32
2024-02-29T07:40:26.758Z,11.20
2024-02-29T07:42:54.258Z,10.73
2024-02-29T07:45:21.765Z,10.48
2024-02-29T07:47:50.282Z,12.15
2024-02-29T07:50:20.575Z,12.43
2024-02-29T07:52:48.434Z,13.02
2024-02-29T07:55:17.840Z,10.98
2024-02-29T07:57:45.802Z,10.75
2024-02-29T08:00:13.797Z,10.05
2024-02-29T08:02:43.192Z,11.48
2024-02-29T08:05:11.037Z,10.65
2024-02-29T08:07:40.013Z,12.68
2024-02-29T08:10:08.079Z,12.55
2024-02-29T08:12:35.724Z,12.07
2024-02-29T08:15:03.223Z,11.95
2024-02-29T08:17:30.786Z,12.13
2024-02-29T08:19:58.444Z,12.73
2024-02-29T08:22:26.725Z,13.88
2024-02-29T08:24:55.581Z,14.37
2024-02-29T08:27:23.108Z,13.15
2024-02-29T08:29:50.764Z,13.80
2024-02-29T08:32:18.245Z,14.43
2024-02-29T08:34:45.907Z,14.18
2024-02-29T08:37:13.570Z,12.30
2024-02-29T08:39:42.410Z,13.23
2024-02-29T08:42:11.704Z,13.50
2024-02-29T08:47:08.168Z,13.48
2024-02-29T08:49:35.680Z,14.05
2024-02-29T08:52:03.244Z,14.23
2024-02-29T08:54:30.735Z,13.55
2024-02-29T08:56:58.223Z,13.27
2024-02-29T08:59:27.043Z,15.23
2024-02-29T09:01:54.953Z,14.18
2024-02-29T09:04:22.549Z,14.55
2024-02-29T09:06:50.340Z,14.48
2024-02-29T09:09:17.765Z,14.27
2024-02-29T09:11:45.629Z,14.55
2024-02-29T09:14:13.090Z,14.25
2024-02-29T09:16:41.878Z,13.98
2024-02-29T09:19:09.367Z,14.93
2024-02-29T09:21:37.060Z,15.10
2024-02-29T09:24:04.751Z,14.90
2024-02-29T09:26:33.386Z,13.45
2024-02-29T09:29:00.823Z,15.15
2024-02-29T09:31:28.294Z,14.73
2024-02-29T09:33:57.552Z,15.32
2024-02-29T09:38:53.327Z,13.30
2024-02-29T09:41:32.812Z,15.00
2024-02-29T09:44:10.064Z,13.32
2024-02-29T09:46:37.578Z,14.63
2024-02-29T09:49:07.051Z,15.18
2024-02-29T09:51:35.999Z,14.10
2024-02-29T09:54:04.514Z,13.85
2024-02-29T09:56:32.435Z,14.55
2024-02-29T09:59:00.749Z,13.63
2024-02-29T10:01:28.441Z,13.20
2024-02-29T10:03:56.612Z,14.07
2024-02-29T10:06:25.412Z,13.23
2024-02-29T10:08:52.848Z,14.02
2024-02-29T10:11:20.389Z,13.10
2024-02-29T10:13:48.404Z,14.07
2024-02-29T10:16:15.963Z,13.23
2024-02-29T10:18:43.461Z,13.38
2024-02-29T10:21:11.956Z,13.65
2024-02-29T10:23:41.006Z,13.23
2024-02-29T10:26:08.689Z,13.45
2024-02-29T10:28:36.221Z,14.77
2024-02-29T10:31:04.685Z,13.85
2024-02-29T10:33:34.127Z,13.77
2024-02-29T10:36:10.148Z,13.23
2024-02-29T10:38:38.436Z,13.15
2024-02-29T10:41:09.521Z,13.27
2024-02-29T10:43:38.274Z,12.63
2024-02-29T10:46:06.683Z,12.98
2024-02-29T10:48:41.588Z,12.80
2024-02-29T10:51:11.851Z,13.65
2024-02-29T10:53:43.155Z,13.35
2024-02-29T10:56:16.810Z,12.65
2024-02-29T10:58:44.930Z,12.55
2024-02-29T11:01:13.900Z,11.20
2024-02-29T11:03:41.472Z,12.15
2024-02-29T11:06:09.192Z,10.75
2024-02-29T11:08:36.775Z,11.25
2024-02-29T11:11:04.348Z,11.48
2024-02-29T11:13:33.476Z,12.35
2024-02-29T11:16:01.002Z,10.25
2024-02-29T11:18:31.450Z,10.30
2024-02-29T11:21:05.657Z,10.27
2024-02-29T11:23:35.365Z,10.85
2024-02-29T11:26:03.011Z,10.57
2024-02-29T11:28:37.837Z,10.80
2024-02-29T11:31:18.243Z,10.90
2024-02-29T11:33:47.331Z,10.65
2024-02-29T11:36:14.848Z,10.77
2024-02-29T11:38:42.778Z,9.73
2024-02-29T11:41:17.725Z,10.20
2024-02-29T11:43:47.234Z,9.48
2024-02-29T11:46:16.758Z,9.80
2024-02-29T11:48:44.511Z,10.60
2024-02-29T11:51:12.049Z,11.00
2024-02-29T11:53:40.937Z,9.77
2024-02-29T11:56:15.231Z,9.60
2024-02-29T11:58:44.388Z,9.90
2024-02-29T12:01:14.818Z,9.95
2024-02-29T12:03:42.497Z,9.60
2024-02-29T12:06:10.034Z,9.53
2024-02-29T12:08:37.495Z,8.75
2024-02-29T12:11:05.239Z,9.95
2024-02-29T12:13:32.742Z,10.07
2024-02-29T12:16:00.319Z,8.52
2024-02-29T12:18:29.090Z,9.88
2024-02-29T12:20:57.779Z,10.05
2024-02-29T12:23:25.376Z,9.18
2024-02-29T12:25:53.130Z,9.23
2024-02-29T12:28:20.980Z,8.18
2024-02-29T12:30:49.912Z,8.63
2024-02-29T12:33:18.653Z,8.93
2024-02-29T12:35:51.874Z,8.25
2024-02-29T12:38:22.477Z,9.15
2024-02-29T12:40:52.890Z,8.13
2024-02-29T12:43:20.817Z,8.68
2024-02-29T12:45:48.526Z,8.20
2024-02-29T12:48:15.987Z,8.37
2024-02-29T12:50:43.486Z,8.63
2024-02-29T12:53:12.253Z,9.13
2024-02-29T12:55:39.678Z,8.40
2024-02-29T12:58:07.508Z,8.15
2024-02-29T13:00:35.027Z,8.43
2024-02-29T13:03:02.659Z,9.10
2024-02-29T13:05:31.249Z,9.80
2024-02-29T13:07:59.118Z,9.43
2024-02-29T13:10:27.995Z,8.63
2024-02-29T13:13:00.276Z,8.68
2024-02-29T13:15:33.733Z,8.05
2024-02-29T13:18:01.285Z,9.02
2024-02-29T13:20:30.553Z,10.02
2024-02-29T13:22:59.062Z,10.32
2024-02-29T13:27:55.576Z,8.97
2024-02-29T13:30:23.082Z,9.20
2024-02-29T13:32:50.622Z,9.40
2024-02-29T13:35:18.114Z,9.35
2024-02-29T13:37:45.739Z,9.35
2024-02-29T13:40:13.240Z,8.68
2024-02-29T13:42:43.443Z,8.43
2024-02-29T13:45:13.889Z,9.20
2024-02-29T13:47:47.686Z,10.45
2024-02-29T13:50:15.547Z,11.63
2024-02-29T13:52:44.202Z,11.17
2024-02-29T13:55:12.164Z,10.77
2024-02-29T13:57:40.027Z,10.48
2024-02-29T14:00:09.280Z,10.13
2024-02-29T14:02:43.770Z,10.63
2024-02-29T14:05:11.217Z,10.38
2024-02-29T14:07:39.165Z,10.02
2024-02-29T14:10:07.772Z,10.23
2024-02-29T14:15:04.246Z,10.38
2024-02-29T14:17:31.798Z,10.37
2024-02-29T14:20:00.978Z,10.70
2024-02-29T14:22:28.964Z,10.77
2024-02-29T14:24:56.560Z,10.10
2024-02-29T14:27:24.096Z,10.55
2024-02-29T14:29:51.819Z,10.65
2024-02-29T14:32:19.242Z,10.70
2024-02-29T14:34:46.738Z,9.38
2024-02-29T14:37:15.855Z,9.95
2024-02-29T14:39:44.401Z,8.88
2024-02-29T14:44:39.470Z,9.32
2024-02-29T14:47:07.843Z,9.85
2024-02-29T14:49:35.362Z,9.57
2024-02-29T14:52:02.878Z,9.65
2024-02-29T14:54:32.211Z,9.05
2024-02-29T14:56:59.724Z,8.40
2024-02-29T14:59:27.192Z,8.05
2024-02-29T15:01:54.706Z,8.90
2024-02-29T15:04:22.350Z,10.30
2024-02-29T15:06:50.286Z,8.35
2024-02-29T15:09:18.310Z,9.00
2024-02-29T15:11:47.169Z,8.47
2024-02-29T15:16:41.990Z,8.68
2024-02-29T15:19:10.373Z,8.90
2024-02-29T15:21:37.855Z,9.10
2024-02-29T15:24:06.171Z,8.48
2024-02-29T15:26:35.634Z,9.13
2024-02-29T15:29:04.470Z,8.80
2024-02-29T15:31:32.047Z,8.27
2024-02-29T15:33:59.674Z,8.43
2024-02-29T15:36:27.446Z,8.82
2024-02-29T15:38:55.866Z,8.75
2024-02-29T15:41:23.353Z,9.02
2024-02-29T15:43:50.937Z,9.00
2024-02-29T15:46:19.806Z,8.90
2024-02-29T15:48:47.441Z,8.40
2024-02-29T15:51:15.042Z,8.20
2024-02-29T15:53:44.249Z,8.10
2024-02-29T15:56:12.124Z,7.90
2024-02-29T15:58:39.649Z,8.50
2024-02-29T16:01:07.254Z,9.07
2024-02-29T16:03:36.109Z,7.63
2024-02-29T16:06:03.583Z,7.35
2024-02-29T16:08:31.026Z,7.93
2024-02-29T16:10:58.800Z,7.45
2024-02-29T16:13:27.073Z,7.45
2024-02-29T16:15:54.807Z,7.20
2024-02-29T16:18:22.402Z,7.93
2024-02-29T16:20:53.998Z,7.03
2024-02-29T16:23:22.257Z,7.90
2024-02-29T16:25:49.786Z,7.80
2024-02-29T16:28:19.077Z,8.00
2024-02-29T16:30:46.673Z,7.38
2024-02-29T16:33:14.280Z,7.50
2024-02-29T16:35:41.772Z,7.38
2024-02-29T16:38:10.633Z,7.35
2024-02-29T16:40:38.107Z,7.68
2024-02-29T16:43:05.807Z,7.10
2024-02-29T16:45:34.303Z,7.65
2024-02-29T16:48:01.925Z,7.38
2024-02-29T16:50:29.389Z,8.00
2024-02-29T16:52:56.863Z,7.82
2024-02-29T16:55:25.731Z,7.38
2024-02-29T16:57:53.216Z,7.38
2024-02-29T17:00:23.497Z,7.63
2024-02-29T17:02:51.245Z,7.82
2024-02-29T17:05:19.060Z,6.70
2024-02-29T17:07:46.532Z,8.18
2024-02-29T17:10:14.216Z,7.38
2024-02-29T17:12:43.163Z,8.13
2024-02-29T17:15:11.660Z,7.95
2024-02-29T17:17:39.216Z,7.53
2024-02-29T17:20:09.065Z,7.57
2024-02-29T17:22:36.583Z,7.95
2024-02-29T17:25:04.623Z,8.38
2024-02-29T17:27:32.954Z,8.30
2024-02-29T17:30:01.811Z,8.27
2024-02-29T17:32:29.701Z,8.00
2024-02-29T17:34:57.198Z,8.32
2024-02-29T17:37:26.391Z,8.50
2024-02-29T17:39:55.422Z,8.45
2024-02-29T17:42:25.304Z,7.90
2024-02-29T17:44:52.844Z,9.52
2024-02-29T17:47:21.752Z,8.60
2024-02-29T17:49:49.224Z,7.80
2024-02-29T17:52:17.012Z,8.20
2024-02-29T17:54:44.703Z,7.80
2024-02-29T17:57:13.702Z,9.27
2024-02-29T17:59:41.826Z,10.10
2024-02-29T18:02:09.644Z,10.30
2024-02-29T18:04:38.593Z,11.38
2024-02-29T18:07:06.227Z,10.57
2024-02-29T18:09:34.017Z,10.88
2024-02-29T18:12:01.474Z,19.40
2024-02-29T18:14:30.178Z,12.05
2024-02-29T18:16:58.307Z,9.68
2024-02-29T18:19:25.869Z,14.32
2024-02-29T18:21:55.753Z,13.43
2024-02-29T18:24:24.925Z,11.82
2024-02-29T18:26:52.448Z,10.90
2024-02-29T18:29:20.677Z,15.77
2024-02-29T18:31:48.316Z,17.20
2024-02-29T18:34:15.821Z,14.70
2024-02-29T18:36:43.323Z,16.15
2024-02-29T18:39:15.047Z,13.73
2024-02-29T18:41:42.977Z,12.75
2024-02-29T18:44:11.847Z,11.82
2024-02-29T18:46:40.728Z,10.65
2024-02-29T18:49:08.744Z,10.60
2024-02-29T18:51:42.713Z,12.70
2024-02-29T18:54:10.220Z,13.77
2024-02-29T18:56:39.102Z,13.57
2024-02-29T18:59:06.580Z,14.55
2024-02-29T19:01:34.135Z,15.80
2024-02-29T19:04:02.338Z,13.75
2024-02-29T19:06:29.847Z,11.20
2024-02-29T19:08:57.292Z,11.80
2024-02-29T19:11:24.886Z,10.52
2024-02-29T19:13:53.715Z,11.88
2024-02-29T19:16:21.221Z,10.32
2024-02-29T19:22:42.492Z,12.57
2024-02-29T19:25:10.525Z,13.40
2024-02-29T19:27:38.142Z,13.40
2024-02-29T19:30:09.708Z,12.68
2024-02-29T19:32:37.343Z,11.95
2024-02-29T19:35:05.052Z,10.43
2024-02-29T19:37:32.670Z,10.60
2024-02-29T19:40:00.286Z,10.18
2024-02-29T19:42:27.818Z,10.05
2024-02-29T19:44:59.156Z,10.20
2024-02-29T19:47:28.369Z,11.18
2024-02-29T19:49:55.901Z,11.43
2024-02-29T19:52:23.590Z,11.02
2024-02-29T19:54:52.796Z,11.27
2024-02-29T19:57:20.306Z,11.35
2024-02-29T19:59:48.011Z,10.68
2024-02-29T20:02:15.446Z,11.20
2024-02-29T20:04:44.401Z,10.68
2024-02-29T20:11:05.401Z,9.50
2024-02-29T20:13:33.151Z,10.73
2024-02-29T20:16:00.651Z,11.38
2024-02-29T20:18:29.085Z,10.93
2024-02-29T20:20:57.885Z,10.75
2024-02-29T20:23:25.722Z,12.52
2024-02-29T20:25:53.591Z,11.85
2024-02-29T20:28:21.199Z,11.93
2024-02-29T20:30:49.024Z,11.60
2024-02-29T20:33:17.488Z,13.48
2024-02-29T20:35:45.024Z,10.80
2024-02-29T20:38:14.866Z,15.35
2024-02-29T20:40:42.526Z,15.00
2024-02-29T20:43:10.087Z,15.70
2024-02-29T20:45:37.580Z,13.10
2024-02-29T20:48:05.727Z,12.82
2024-02-29T20:50:33.296Z,12.10
2024-02-29T20:53:01.689Z,12.23
2024-02-29T20:55:31.249Z,11.52
2024-02-29T20:57:58.910Z,12.77
2024-02-29T21:00:26.512Z,11.27
2024-02-29T21:02:54.095Z,12.73
2024-02-29T21:05:22.200Z,11.05
2024-02-29T21:07:49.754Z,11.57
2024-02-29T21:10:17.852Z,11.68
2024-02-29T21:12:46.836Z,12.43
2024-02-29T21:15:14.386Z,11.25
2024-02-29T21:17:41.946Z,12.00
2024-02-29T21:20:11.938Z,10.65
2024-02-29T21:22:44.501Z,10.63
2024-02-29T21:25:12.205Z,11.65
2024-02-29T21:27:39.742Z,13.50
2024-02-29T21:30:09.335Z,13.10
2024-02-29T21:32:37.022Z,12.43
2024-02-29T21:35:04.923Z,12.57
2024-02-29T21:37:32.411Z,12.57
2024-02-29T21:39:59.900Z,11.07
2024-02-29T21:42:27.407Z,12.15
2024-02-29T21:44:54.870Z,11.55
2024-02-29T21:47:23.644Z,12.18
2024-02-29T21:49:51.105Z,11.80
2024-02-29T21:52:18.643Z,12.13
2024-02-29T21:54:46.727Z,11.50
2024-02-29T21:57:15.427Z,12.98
2024-02-29T21:59:44.986Z,9.43
2024-02-29T22:02:12.566Z,10.55
2024-02-29T22:04:41.960Z,11.48
2024-02-29T22:09:37.084Z,9.52
2024-02-29T22:12:04.646Z,11.00
2024-02-29T22:14:32.132Z,11.50
2024-02-29T22:16:59.597Z,12.52
2024-02-29T22:19:27.195Z,11.75
2024-02-29T22:21:56.116Z,11.85
2024-02-29T22:24:23.564Z,11.15
2024-02-29T22:26:53.238Z,11.45
2024-02-29T22:29:22.787Z,10.18
2024-02-29T22:31:50.255Z,12.50
2024-02-29T22:34:18.009Z,11.02
2024-02-29T22:36:45.537Z,10.77
2024-02-29T22:39:14.351Z,9.45
2024-02-29T22:41:52.617Z,12.48
2024-02-29T22:44:24.728Z,9.43
2024-02-29T22:46:52.451Z,11.23
2024-02-29T22:49:19.923Z,11.50
2024-02-29T22:51:47.413Z,11.05
2024-02-29T22:54:16.237Z,10.70
2024-02-29T22:56:43.727Z,11.35
2024-02-29T22:59:11.736Z,11.05
2024-02-29T23:01:42.999Z,11.63
2024-02-29T23:04:10.511Z,11.63
2024-02-29T23:06:37.969Z,11.85
2024-02-29T23:09:05.502Z,11.45
2024-02-29T23:11:34.409Z,12.15
2024-02-29T23:14:01.943Z,11.75
2024-02-29T23:16:29.477Z,12.57
2024-02-29T23:18:57.020Z,12.02
2024-02-29T23:21:25.127Z,12.07
2024-02-29T23:23:52.609Z,11.68
2024-02-29T23:26:22.084Z,12.80
2024-02-29T23:28:51.261Z,13.05
2024-02-29T23:31:18.782Z,12.05
2024-02-29T23:33:46.341Z,11.43
2024-02-29T23:36:14.785Z,12.60
2024-02-29T23:38:42.250Z,12.95
2024-02-29T23:41:09.741Z,12.23
2024-02-29T23:43:39.321Z,13.02
2024-02-29T23:46:08.336Z,10.45
2024-02-29T23:48:36.132Z,12.98
2024-02-29T23:51:04.131Z,11.82
2024-02-29T23:53:31.569Z,11.80
2024-02-29T23:55:59.033Z,11.70
2024-02-29T23:58:26.729Z,10.40
